KHWO/HWO METAR and TAF weather

Enter ICAO airport designator
Station Type Date Time Source
KHWO METAR 2021/03/03 19:53 UTC NOAA

KHWO 031953Z 24018G24KT 10SM FEW044 BKN075 BKN090 29/18 A2991 RMK AO2 PK WND 26026/1925 SLP127 T02940178 $


Station Type Date Time Source
KHWO Decoded METAR 2021/03/03 19:53 UTC NOAA

HOLLYWOOD NORTH PERRY AIRPORT , FL, United States (KHWO) 26-00N 080-14W 2M
Mar 03, 2021 - 02:53 PM EST / 2021.03.03 1953 UTC
Wind: from the WSW (240 degrees) at 21 MPH (18 KT) gusting to 28 MPH (24 KT):0
Visibility: 10 mile(s):0
Sky conditions: mostly cloudy
Temperature: 84.9 F (29.4 C)
Dew Point: 64.0 F (17.8 C)
Relative Humidity: 49%
Pressure (altimeter): 29.91 in. Hg (1012 hPa)
ob: KHWO 031953Z 24018G24KT 10SM FEW044 BKN075 BKN090 29/18 A2991 RMK AO2 PK WND 26026/1925 SLP127 T02940178
cycle: 20

Station Type Date Time Source
KHWO TAF 2020/02/03 18:20 UTC NOAA

TAF KHWO 031720Z 0318/0418 12005KT P6SM SKC
FM040000 VRB03KT P6SM SKC
FM041500 14010KT P6SM FEW030

Example: see airport list